sensor_id;sensor_type;location;lat;lon;timestamp;P1;durP1;ratioP1;P2;durP2;ratioP2
16472;SDS011;8347;52.486;13.432;2023-02-23T00:00:28;25.80;;;8.88;;
16472;SDS011;8347;52.486;13.432;2023-02-23T00:03:17;20.15;;;10.23;;
16472;SDS011;8347;52.486;13.432;2023-02-23T00:06:03;23.38;;;9.20;;
16472;SDS011;8347;52.486;13.432;2023-02-23T00:08:50;26.92;;;9.48;;
16472;SDS011;8347;52.486;13.432;2023-02-23T00:11:37;26.38;;;9.65;;
16472;SDS011;8347;52.486;13.432;2023-02-23T00:14:24;29.45;;;9.65;;
16472;SDS011;8347;52.486;13.432;2023-02-23T00:17:15;24.17;;;9.57;;
16472;SDS011;8347;52.486;13.432;2023-02-23T00:20:05;23.80;;;10.65;;
16472;SDS011;8347;52.486;13.432;2023-02-23T00:22:53;26.65;;;10.30;;
16472;SDS011;8347;52.486;13.432;2023-02-23T00:25:40;24.45;;;9.93;;
16472;SDS011;8347;52.486;13.432;2023-02-23T00:28:30;32.83;;;10.30;;
16472;SDS011;8347;52.486;13.432;2023-02-23T00:31:16;26.92;;;10.00;;
16472;SDS011;8347;52.486;13.432;2023-02-23T00:34:04;33.50;;;11.52;;
16472;SDS011;8347;52.486;13.432;2023-02-23T00:36:52;17.60;;;9.75;;
16472;SDS011;8347;52.486;13.432;2023-02-23T00:39:39;22.42;;;10.05;;
16472;SDS011;8347;52.486;13.432;2023-02-23T00:42:26;25.02;;;9.73;;
16472;SDS011;8347;52.486;13.432;2023-02-23T00:45:20;19.38;;;10.48;;
16472;SDS011;8347;52.486;13.432;2023-02-23T00:48:06;25.80;;;11.27;;
16472;SDS011;8347;52.486;13.432;2023-02-23T00:51:02;26.08;;;10.30;;
16472;SDS011;8347;52.486;13.432;2023-02-23T00:53:52;25.15;;;11.10;;
16472;SDS011;8347;52.486;13.432;2023-02-23T00:56:40;26.77;;;10.60;;
16472;SDS011;8347;52.486;13.432;2023-02-23T00:59:26;28.98;;;11.35;;
16472;SDS011;8347;52.486;13.432;2023-02-23T01:02:14;21.20;;;10.38;;
16472;SDS011;8347;52.486;13.432;2023-02-23T01:05:01;25.60;;;10.35;;
16472;SDS011;8347;52.486;13.432;2023-02-23T01:07:48;21.48;;;10.23;;
16472;SDS011;8347;52.486;13.432;2023-02-23T01:10:39;27.88;;;11.48;;
16472;SDS011;8347;52.486;13.432;2023-02-23T01:13:30;25.20;;;11.63;;
16472;SDS011;8347;52.486;13.432;2023-02-23T01:16:18;21.23;;;10.50;;
16472;SDS011;8347;52.486;13.432;2023-02-23T01:19:08;34.03;;;12.18;;
16472;SDS011;8347;52.486;13.432;2023-02-23T01:21:55;29.33;;;10.85;;
16472;SDS011;8347;52.486;13.432;2023-02-23T01:24:42;29.27;;;11.90;;
16472;SDS011;8347;52.486;13.432;2023-02-23T01:27:28;21.67;;;11.98;;
16472;SDS011;8347;52.486;13.432;2023-02-23T01:30:15;31.75;;;12.35;;
16472;SDS011;8347;52.486;13.432;2023-02-23T01:33:03;22.48;;;10.68;;
16472;SDS011;8347;52.486;13.432;2023-02-23T01:35:56;24.35;;;11.52;;
16472;SDS011;8347;52.486;13.432;2023-02-23T01:38:43;24.52;;;11.35;;
16472;SDS011;8347;52.486;13.432;2023-02-23T01:41:31;26.92;;;11.80;;
16472;SDS011;8347;52.486;13.432;2023-02-23T01:47:04;25.17;;;11.77;;
16472;SDS011;8347;52.486;13.432;2023-02-23T01:49:51;26.90;;;11.43;;
16472;SDS011;8347;52.486;13.432;2023-02-23T01:52:38;21.60;;;10.95;;
16472;SDS011;8347;52.486;13.432;2023-02-23T01:55:25;32.33;;;13.00;;
16472;SDS011;8347;52.486;13.432;2023-02-23T01:58:14;25.83;;;11.55;;
16472;SDS011;8347;52.486;13.432;2023-02-23T02:01:04;26.98;;;11.38;;
16472;SDS011;8347;52.486;13.432;2023-02-23T02:03:53;28.10;;;11.98;;
16472;SDS011;8347;52.486;13.432;2023-02-23T02:06:44;26.20;;;13.00;;
16472;SDS011;8347;52.486;13.432;2023-02-23T02:09:32;30.02;;;12.10;;
16472;SDS011;8347;52.486;13.432;2023-02-23T02:12:24;31.10;;;12.75;;
16472;SDS011;8347;52.486;13.432;2023-02-23T02:15:11;32.92;;;12.50;;
16472;SDS011;8347;52.486;13.432;2023-02-23T02:18:09;18.80;;;10.60;;
16472;SDS011;8347;52.486;13.432;2023-02-23T02:21:13;31.48;;;12.35;;
16472;SDS011;8347;52.486;13.432;2023-02-23T02:27:56;31.65;;;12.48;;
16472;SDS011;8347;52.486;13.432;2023-02-23T02:31:04;26.25;;;11.02;;
16472;SDS011;8347;52.486;13.432;2023-02-23T02:37:42;29.15;;;13.07;;
16472;SDS011;8347;52.486;13.432;2023-02-23T02:40:27;23.17;;;10.45;;
16472;SDS011;8347;52.486;13.432;2023-02-23T02:46:29;26.08;;;12.00;;
16472;SDS011;8347;52.486;13.432;2023-02-23T02:49:25;28.63;;;13.57;;
16472;SDS011;8347;52.486;13.432;2023-02-23T02:52:18;30.30;;;12.80;;
16472;SDS011;8347;52.486;13.432;2023-02-23T02:55:08;24.80;;;12.25;;
16472;SDS011;8347;52.486;13.432;2023-02-23T02:58:05;37.13;;;14.75;;
16472;SDS011;8347;52.486;13.432;2023-02-23T03:00:53;35.65;;;13.20;;
16472;SDS011;8347;52.486;13.432;2023-02-23T03:03:58;25.10;;;11.13;;
16472;SDS011;8347;52.486;13.432;2023-02-23T03:07:09;28.55;;;12.40;;
16472;SDS011;8347;52.486;13.432;2023-02-23T03:10:34;27.33;;;11.90;;
16472;SDS011;8347;52.486;13.432;2023-02-23T03:13:47;29.73;;;14.05;;
16472;SDS011;8347;52.486;13.432;2023-02-23T03:17:12;25.58;;;13.57;;
16472;SDS011;8347;52.486;13.432;2023-02-23T03:20:25;26.58;;;12.68;;
16472;SDS011;8347;52.486;13.432;2023-02-23T03:23:44;29.50;;;12.02;;
16472;SDS011;8347;52.486;13.432;2023-02-23T03:34:19;28.05;;;12.70;;
16472;SDS011;8347;52.486;13.432;2023-02-23T03:37:34;27.60;;;12.80;;
16472;SDS011;8347;52.486;13.432;2023-02-23T03:40:43;29.05;;;11.88;;
16472;SDS011;8347;52.486;13.432;2023-02-23T03:43:52;29.48;;;12.77;;
16472;SDS011;8347;52.486;13.432;2023-02-23T03:46:59;27.02;;;13.43;;
16472;SDS011;8347;52.486;13.432;2023-02-23T03:50:05;28.88;;;12.50;;
16472;SDS011;8347;52.486;13.432;2023-02-23T03:53:12;25.42;;;12.55;;
16472;SDS011;8347;52.486;13.432;2023-02-23T03:56:18;32.92;;;13.68;;
16472;SDS011;8347;52.486;13.432;2023-02-23T03:59:25;25.58;;;12.95;;
16472;SDS011;8347;52.486;13.432;2023-02-23T04:02:34;30.45;;;13.80;;
16472;SDS011;8347;52.486;13.432;2023-02-23T04:05:41;31.70;;;12.93;;
16472;SDS011;8347;52.486;13.432;2023-02-23T04:08:47;26.65;;;12.90;;
16472;SDS011;8347;52.486;13.432;2023-02-23T04:12:01;26.67;;;12.95;;
16472;SDS011;8347;52.486;13.432;2023-02-23T04:15:23;28.15;;;13.60;;
16472;SDS011;8347;52.486;13.432;2023-02-23T04:18:16;28.33;;;14.27;;
16472;SDS011;8347;52.486;13.432;2023-02-23T04:21:03;23.60;;;13.05;;
16472;SDS011;8347;52.486;13.432;2023-02-23T04:23:50;24.77;;;12.18;;
16472;SDS011;8347;52.486;13.432;2023-02-23T04:26:37;29.92;;;13.55;;
16472;SDS011;8347;52.486;13.432;2023-02-23T04:29:23;29.00;;;13.57;;
16472;SDS011;8347;52.486;13.432;2023-02-23T04:32:15;31.08;;;14.57;;
16472;SDS011;8347;52.486;13.432;2023-02-23T04:35:02;27.55;;;13.93;;
16472;SDS011;8347;52.486;13.432;2023-02-23T04:37:49;31.00;;;13.00;;
16472;SDS011;8347;52.486;13.432;2023-02-23T04:40:35;28.02;;;12.95;;
16472;SDS011;8347;52.486;13.432;2023-02-23T04:43:22;29.33;;;12.63;;
16472;SDS011;8347;52.486;13.432;2023-02-23T04:46:08;29.48;;;14.00;;
16472;SDS011;8347;52.486;13.432;2023-02-23T04:48:54;31.85;;;13.73;;
16472;SDS011;8347;52.486;13.432;2023-02-23T04:51:41;26.90;;;13.25;;
16472;SDS011;8347;52.486;13.432;2023-02-23T04:54:27;32.83;;;13.00;;
16472;SDS011;8347;52.486;13.432;2023-02-23T04:57:14;31.42;;;13.07;;
16472;SDS011;8347;52.486;13.432;2023-02-23T05:00:00;33.20;;;13.82;;
16472;SDS011;8347;52.486;13.432;2023-02-23T05:02:49;28.15;;;13.07;;
16472;SDS011;8347;52.486;13.432;2023-02-23T05:05:36;30.98;;;15.15;;
16472;SDS011;8347;52.486;13.432;2023-02-23T05:08:22;37.03;;;13.88;;
16472;SDS011;8347;52.486;13.432;2023-02-23T05:11:09;23.98;;;12.05;;
16472;SDS011;8347;52.486;13.432;2023-02-23T05:13:55;28.50;;;12.25;;
16472;SDS011;8347;52.486;13.432;2023-02-23T05:16:41;27.85;;;13.55;;
16472;SDS011;8347;52.486;13.432;2023-02-23T05:19:28;28.27;;;13.30;;
16472;SDS011;8347;52.486;13.432;2023-02-23T05:22:15;32.58;;;15.27;;
16472;SDS011;8347;52.486;13.432;2023-02-23T05:25:01;26.98;;;11.75;;
16472;SDS011;8347;52.486;13.432;2023-02-23T05:27:48;25.95;;;12.98;;
16472;SDS011;8347;52.486;13.432;2023-02-23T05:30:35;29.65;;;13.48;;
16472;SDS011;8347;52.486;13.432;2023-02-23T05:33:22;26.05;;;12.85;;
16472;SDS011;8347;52.486;13.432;2023-02-23T05:36:09;32.20;;;15.02;;
16472;SDS011;8347;52.486;13.432;2023-02-23T05:38:57;31.98;;;12.98;;
16472;SDS011;8347;52.486;13.432;2023-02-23T05:41:44;27.30;;;12.88;;
16472;SDS011;8347;52.486;13.432;2023-02-23T05:44:31;36.22;;;13.07;;
16472;SDS011;8347;52.486;13.432;2023-02-23T05:47:18;31.55;;;13.65;;
16472;SDS011;8347;52.486;13.432;2023-02-23T05:50:05;36.08;;;14.48;;
16472;SDS011;8347;52.486;13.432;2023-02-23T05:52:52;31.75;;;14.25;;
16472;SDS011;8347;52.486;13.432;2023-02-23T05:55:38;35.60;;;14.32;;
16472;SDS011;8347;52.486;13.432;2023-02-23T05:58:25;26.02;;;13.93;;
16472;SDS011;8347;52.486;13.432;2023-02-23T06:01:11;34.22;;;14.73;;
16472;SDS011;8347;52.486;13.432;2023-02-23T06:03:58;32.65;;;15.15;;
16472;SDS011;8347;52.486;13.432;2023-02-23T06:06:45;33.38;;;14.77;;
16472;SDS011;8347;52.486;13.432;2023-02-23T06:09:31;41.47;;;14.15;;
16472;SDS011;8347;52.486;13.432;2023-02-23T06:12:18;35.65;;;13.75;;
16472;SDS011;8347;52.486;13.432;2023-02-23T06:15:04;32.47;;;14.73;;
16472;SDS011;8347;52.486;13.432;2023-02-23T06:17:51;35.60;;;15.68;;
16472;SDS011;8347;52.486;13.432;2023-02-23T06:20:38;32.30;;;13.32;;
16472;SDS011;8347;52.486;13.432;2023-02-23T06:23:24;30.15;;;12.30;;
16472;SDS011;8347;52.486;13.432;2023-02-23T06:26:11;27.35;;;13.32;;
16472;SDS011;8347;52.486;13.432;2023-02-23T06:28:58;35.97;;;14.18;;
16472;SDS011;8347;52.486;13.432;2023-02-23T06:31:44;33.45;;;14.65;;
16472;SDS011;8347;52.486;13.432;2023-02-23T06:34:31;29.98;;;14.23;;
16472;SDS011;8347;52.486;13.432;2023-02-23T06:37:19;29.75;;;13.80;;
16472;SDS011;8347;52.486;13.432;2023-02-23T06:40:05;30.55;;;15.82;;
16472;SDS011;8347;52.486;13.432;2023-02-23T06:42:52;32.03;;;14.07;;
16472;SDS011;8347;52.486;13.432;2023-02-23T06:45:39;29.58;;;14.38;;
16472;SDS011;8347;52.486;13.432;2023-02-23T06:48:25;38.17;;;14.57;;
16472;SDS011;8347;52.486;13.432;2023-02-23T06:51:12;32.70;;;15.57;;
16472;SDS011;8347;52.486;13.432;2023-02-23T06:53:58;34.85;;;15.82;;
16472;SDS011;8347;52.486;13.432;2023-02-23T06:56:45;41.70;;;16.58;;
16472;SDS011;8347;52.486;13.432;2023-02-23T06:59:31;33.95;;;14.65;;
16472;SDS011;8347;52.486;13.432;2023-02-23T07:02:18;29.40;;;13.00;;
16472;SDS011;8347;52.486;13.432;2023-02-23T07:05:04;27.00;;;15.32;;
16472;SDS011;8347;52.486;13.432;2023-02-23T07:07:51;26.23;;;12.95;;
16472;SDS011;8347;52.486;13.432;2023-02-23T07:10:38;34.72;;;14.30;;
16472;SDS011;8347;52.486;13.432;2023-02-23T07:13:24;26.50;;;13.43;;
16472;SDS011;8347;52.486;13.432;2023-02-23T07:16:11;32.60;;;13.93;;
16472;SDS011;8347;52.486;13.432;2023-02-23T07:18:59;36.15;;;13.43;;
16472;SDS011;8347;52.486;13.432;2023-02-23T07:21:46;24.23;;;12.93;;
16472;SDS011;8347;52.486;13.432;2023-02-23T07:24:32;27.80;;;13.73;;
16472;SDS011;8347;52.486;13.432;2023-02-23T07:27:18;37.63;;;15.02;;
16472;SDS011;8347;52.486;13.432;2023-02-23T07:30:05;30.75;;;14.45;;
16472;SDS011;8347;52.486;13.432;2023-02-23T07:32:52;30.02;;;13.50;;
16472;SDS011;8347;52.486;13.432;2023-02-23T07:35:39;34.95;;;14.45;;
16472;SDS011;8347;52.486;13.432;2023-02-23T07:38:27;26.20;;;13.93;;
16472;SDS011;8347;52.486;13.432;2023-02-23T07:41:13;32.75;;;14.05;;
16472;SDS011;8347;52.486;13.432;2023-02-23T07:44:00;26.25;;;13.52;;
16472;SDS011;8347;52.486;13.432;2023-02-23T07:46:46;30.20;;;13.40;;
16472;SDS011;8347;52.486;13.432;2023-02-23T07:49:34;31.15;;;13.45;;
16472;SDS011;8347;52.486;13.432;2023-02-23T07:52:20;22.48;;;12.95;;
16472;SDS011;8347;52.486;13.432;2023-02-23T07:55:07;35.30;;;13.75;;
16472;SDS011;8347;52.486;13.432;2023-02-23T07:57:54;37.30;;;13.95;;
16472;SDS011;8347;52.486;13.432;2023-02-23T08:00:40;33.33;;;14.93;;
16472;SDS011;8347;52.486;13.432;2023-02-23T08:03:27;29.23;;;14.07;;
16472;SDS011;8347;52.486;13.432;2023-02-23T08:06:18;30.08;;;13.75;;
16472;SDS011;8347;52.486;13.432;2023-02-23T08:09:04;33.33;;;13.75;;
16472;SDS011;8347;52.486;13.432;2023-02-23T08:11:52;27.00;;;13.43;;
16472;SDS011;8347;52.486;13.432;2023-02-23T08:14:38;30.55;;;13.98;;
16472;SDS011;8347;52.486;13.432;2023-02-23T08:17:25;25.17;;;12.85;;
16472;SDS011;8347;52.486;13.432;2023-02-23T08:20:12;29.52;;;13.38;;
16472;SDS011;8347;52.486;13.432;2023-02-23T08:22:58;28.13;;;13.23;;
16472;SDS011;8347;52.486;13.432;2023-02-23T08:25:45;29.08;;;13.75;;
16472;SDS011;8347;52.486;13.432;2023-02-23T08:28:31;24.42;;;14.07;;
16472;SDS011;8347;52.486;13.432;2023-02-23T08:31:17;26.17;;;13.23;;
16472;SDS011;8347;52.486;13.432;2023-02-23T08:34:06;33.65;;;15.15;;
16472;SDS011;8347;52.486;13.432;2023-02-23T08:36:53;25.20;;;12.52;;
16472;SDS011;8347;52.486;13.432;2023-02-23T08:39:39;29.77;;;13.48;;
16472;SDS011;8347;52.486;13.432;2023-02-23T08:42:26;27.75;;;13.18;;
16472;SDS011;8347;52.486;13.432;2023-02-23T08:45:13;30.83;;;12.75;;
16472;SDS011;8347;52.486;13.432;2023-02-23T08:47:59;34.22;;;13.82;;
16472;SDS011;8347;52.486;13.432;2023-02-23T08:50:46;25.20;;;13.25;;
16472;SDS011;8347;52.486;13.432;2023-02-23T08:53:34;31.10;;;14.18;;
16472;SDS011;8347;52.486;13.432;2023-02-23T08:56:21;23.77;;;13.52;;
16472;SDS011;8347;52.486;13.432;2023-02-23T08:59:10;27.33;;;12.95;;
16472;SDS011;8347;52.486;13.432;2023-02-23T09:01:57;34.90;;;15.55;;
16472;SDS011;8347;52.486;13.432;2023-02-23T09:04:44;38.13;;;15.23;;
16472;SDS011;8347;52.486;13.432;2023-02-23T09:07:30;27.65;;;14.02;;
16472;SDS011;8347;52.486;13.432;2023-02-23T09:10:17;36.55;;;15.35;;
16472;SDS011;8347;52.486;13.432;2023-02-23T09:13:04;29.40;;;15.55;;
16472;SDS011;8347;52.486;13.432;2023-02-23T09:15:51;27.63;;;14.10;;
16472;SDS011;8347;52.486;13.432;2023-02-23T09:18:39;30.45;;;15.50;;
16472;SDS011;8347;52.486;13.432;2023-02-23T09:21:25;33.53;;;14.10;;
16472;SDS011;8347;52.486;13.432;2023-02-23T09:24:13;33.22;;;13.60;;
16472;SDS011;8347;52.486;13.432;2023-02-23T09:27:03;37.58;;;16.30;;
16472;SDS011;8347;52.486;13.432;2023-02-23T09:29:52;29.63;;;14.23;;
16472;SDS011;8347;52.486;13.432;2023-02-23T09:32:38;29.13;;;14.23;;
16472;SDS011;8347;52.486;13.432;2023-02-23T09:35:25;24.25;;;14.07;;
16472;SDS011;8347;52.486;13.432;2023-02-23T09:38:11;28.13;;;15.25;;
16472;SDS011;8347;52.486;13.432;2023-02-23T09:40:58;26.13;;;13.18;;
16472;SDS011;8347;52.486;13.432;2023-02-23T09:43:47;33.25;;;14.82;;
16472;SDS011;8347;52.486;13.432;2023-02-23T09:46:39;32.58;;;15.20;;
16472;SDS011;8347;52.486;13.432;2023-02-23T09:49:31;21.55;;;13.13;;
16472;SDS011;8347;52.486;13.432;2023-02-23T09:52:21;25.23;;;14.68;;
16472;SDS011;8347;52.486;13.432;2023-02-23T09:55:11;26.27;;;13.90;;
16472;SDS011;8347;52.486;13.432;2023-02-23T09:58:02;24.88;;;13.25;;
16472;SDS011;8347;52.486;13.432;2023-02-23T10:00:58;29.65;;;15.10;;
16472;SDS011;8347;52.486;13.432;2023-02-23T10:07:08;26.38;;;14.80;;
16472;SDS011;8347;52.486;13.432;2023-02-23T10:10:11;29.23;;;14.38;;
16472;SDS011;8347;52.486;13.432;2023-02-23T10:13:09;26.20;;;14.25;;
16472;SDS011;8347;52.486;13.432;2023-02-23T10:22:04;26.60;;;15.23;;
16472;SDS011;8347;52.486;13.432;2023-02-23T10:24:56;28.80;;;15.40;;
16472;SDS011;8347;52.486;13.432;2023-02-23T10:27:46;25.52;;;14.52;;
16472;SDS011;8347;52.486;13.432;2023-02-23T10:30:33;30.25;;;14.88;;
16472;SDS011;8347;52.486;13.432;2023-02-23T10:33:29;29.42;;;14.32;;
16472;SDS011;8347;52.486;13.432;2023-02-23T10:36:27;27.55;;;13.90;;
16472;SDS011;8347;52.486;13.432;2023-02-23T10:39:22;26.35;;;15.70;;
16472;SDS011;8347;52.486;13.432;2023-02-23T10:42:13;23.55;;;14.48;;
16472;SDS011;8347;52.486;13.432;2023-02-23T10:45:01;25.67;;;14.27;;
16472;SDS011;8347;52.486;13.432;2023-02-23T10:47:51;29.63;;;15.63;;
16472;SDS011;8347;52.486;13.432;2023-02-23T10:50:43;27.45;;;15.43;;
16472;SDS011;8347;52.486;13.432;2023-02-23T10:53:35;30.88;;;17.15;;
16472;SDS011;8347;52.486;13.432;2023-02-23T10:56:22;24.50;;;15.23;;
16472;SDS011;8347;52.486;13.432;2023-02-23T10:59:14;26.48;;;15.13;;
16472;SDS011;8347;52.486;13.432;2023-02-23T11:02:21;34.47;;;18.00;;
16472;SDS011;8347;52.486;13.432;2023-02-23T11:08:20;27.63;;;15.00;;
16472;SDS011;8347;52.486;13.432;2023-02-23T11:13:55;33.95;;;17.67;;
16472;SDS011;8347;52.486;13.432;2023-02-23T11:16:42;35.53;;;16.90;;
16472;SDS011;8347;52.486;13.432;2023-02-23T11:19:31;33.03;;;16.98;;
16472;SDS011;8347;52.486;13.432;2023-02-23T11:22:18;29.08;;;16.85;;
16472;SDS011;8347;52.486;13.432;2023-02-23T11:25:13;30.08;;;16.00;;
16472;SDS011;8347;52.486;13.432;2023-02-23T11:28:01;30.80;;;14.93;;
16472;SDS011;8347;52.486;13.432;2023-02-23T11:30:47;31.33;;;16.30;;
16472;SDS011;8347;52.486;13.432;2023-02-23T11:33:34;30.92;;;15.90;;
16472;SDS011;8347;52.486;13.432;2023-02-23T11:36:26;27.10;;;14.27;;
16472;SDS011;8347;52.486;13.432;2023-02-23T11:42:05;32.47;;;16.85;;
16472;SDS011;8347;52.486;13.432;2023-02-23T11:47:51;27.02;;;16.23;;
16472;SDS011;8347;52.486;13.432;2023-02-23T11:50:44;33.28;;;18.88;;
16472;SDS011;8347;52.486;13.432;2023-02-23T11:53:38;27.48;;;15.82;;
16472;SDS011;8347;52.486;13.432;2023-02-23T11:56:25;29.20;;;17.27;;
16472;SDS011;8347;52.486;13.432;2023-02-23T11:59:16;27.67;;;16.77;;
16472;SDS011;8347;52.486;13.432;2023-02-23T12:02:15;37.50;;;19.05;;
16472;SDS011;8347;52.486;13.432;2023-02-23T12:05:17;30.45;;;17.42;;
16472;SDS011;8347;52.486;13.432;2023-02-23T12:08:10;30.13;;;16.55;;
16472;SDS011;8347;52.486;13.432;2023-02-23T12:10:59;34.53;;;16.90;;
16472;SDS011;8347;52.486;13.432;2023-02-23T12:13:56;33.60;;;17.95;;
16472;SDS011;8347;52.486;13.432;2023-02-23T12:16:45;28.33;;;17.33;;
16472;SDS011;8347;52.486;13.432;2023-02-23T12:19:38;31.60;;;17.42;;
16472;SDS011;8347;52.486;13.432;2023-02-23T12:22:28;30.63;;;17.85;;
16472;SDS011;8347;52.486;13.432;2023-02-23T12:25:21;28.33;;;16.73;;
16472;SDS011;8347;52.486;13.432;2023-02-23T12:28:31;28.85;;;15.23;;
16472;SDS011;8347;52.486;13.432;2023-02-23T12:31:25;30.98;;;17.40;;
16472;SDS011;8347;52.486;13.432;2023-02-23T12:34:14;38.42;;;17.85;;
16472;SDS011;8347;52.486;13.432;2023-02-23T12:37:27;33.05;;;17.25;;
16472;SDS011;8347;52.486;13.432;2023-02-23T12:40:23;29.80;;;16.58;;
16472;SDS011;8347;52.486;13.432;2023-02-23T12:43:20;30.55;;;17.65;;
16472;SDS011;8347;52.486;13.432;2023-02-23T12:46:30;28.13;;;17.05;;
16472;SDS011;8347;52.486;13.432;2023-02-23T12:49:31;32.40;;;17.92;;
16472;SDS011;8347;52.486;13.432;2023-02-23T12:52:22;31.52;;;17.80;;
16472;SDS011;8347;52.486;13.432;2023-02-23T12:55:12;28.98;;;17.20;;
16472;SDS011;8347;52.486;13.432;2023-02-23T12:58:06;41.50;;;19.70;;
16472;SDS011;8347;52.486;13.432;2023-02-23T13:00:58;30.00;;;17.60;;
16472;SDS011;8347;52.486;13.432;2023-02-23T13:04:04;31.45;;;18.05;;
16472;SDS011;8347;52.486;13.432;2023-02-23T13:06:55;35.80;;;18.20;;
16472;SDS011;8347;52.486;13.432;2023-02-23T13:12:56;38.45;;;19.90;;
16472;SDS011;8347;52.486;13.432;2023-02-23T13:15:45;32.40;;;18.77;;
16472;SDS011;8347;52.486;13.432;2023-02-23T13:22:27;30.80;;;17.20;;
16472;SDS011;8347;52.486;13.432;2023-02-23T13:29:02;33.25;;;18.00;;
16472;SDS011;8347;52.486;13.432;2023-02-23T13:31:30;31.65;;;18.13;;
16472;SDS011;8347;52.486;13.432;2023-02-23T13:34:20;37.88;;;19.05;;
16472;SDS011;8347;52.486;13.432;2023-02-23T13:37:09;30.10;;;16.88;;
16472;SDS011;8347;52.486;13.432;2023-02-23T13:46:25;37.10;;;20.45;;
16472;SDS011;8347;52.486;13.432;2023-02-23T13:52:36;30.95;;;17.45;;
16472;SDS011;8347;52.486;13.432;2023-02-23T13:58:14;44.63;;;22.00;;
16472;SDS011;8347;52.486;13.432;2023-02-23T14:01:03;37.47;;;21.30;;
16472;SDS011;8347;52.486;13.432;2023-02-23T14:03:52;34.03;;;21.00;;
16472;SDS011;8347;52.486;13.432;2023-02-23T14:06:40;38.30;;;21.20;;
16472;SDS011;8347;52.486;13.432;2023-02-23T14:09:36;37.00;;;21.85;;
16472;SDS011;8347;52.486;13.432;2023-02-23T14:12:24;33.70;;;20.05;;
16472;SDS011;8347;52.486;13.432;2023-02-23T14:15:26;37.67;;;19.75;;
16472;SDS011;8347;52.486;13.432;2023-02-23T14:32:53;48.35;;;25.90;;
16472;SDS011;8347;52.486;13.432;2023-02-23T14:35:46;38.17;;;22.85;;
16472;SDS011;8347;52.486;13.432;2023-02-23T14:38:33;34.20;;;21.92;;
16472;SDS011;8347;52.486;13.432;2023-02-23T14:41:24;36.83;;;21.13;;
16472;SDS011;8347;52.486;13.432;2023-02-23T14:44:16;40.03;;;22.73;;
16472;SDS011;8347;52.486;13.432;2023-02-23T14:47:07;35.50;;;22.33;;
16472;SDS011;8347;52.486;13.432;2023-02-23T14:49:58;41.00;;;23.45;;
16472;SDS011;8347;52.486;13.432;2023-02-23T14:52:46;39.40;;;22.83;;
16472;SDS011;8347;52.486;13.432;2023-02-23T14:55:33;39.13;;;22.48;;
16472;SDS011;8347;52.486;13.432;2023-02-23T14:58:28;45.30;;;24.27;;
16472;SDS011;8347;52.486;13.432;2023-02-23T15:01:31;38.80;;;23.27;;
16472;SDS011;8347;52.486;13.432;2023-02-23T15:04:22;40.47;;;23.25;;
16472;SDS011;8347;52.486;13.432;2023-02-23T15:07:13;41.55;;;25.38;;
16472;SDS011;8347;52.486;13.432;2023-02-23T15:10:07;44.53;;;24.65;;
16472;SDS011;8347;52.486;13.432;2023-02-23T15:12:54;44.33;;;24.80;;
16472;SDS011;8347;52.486;13.432;2023-02-23T15:15:41;47.67;;;28.63;;
16472;SDS011;8347;52.486;13.432;2023-02-23T15:22:23;53.47;;;28.60;;
16472;SDS011;8347;52.486;13.432;2023-02-23T15:25:15;46.95;;;27.85;;
16472;SDS011;8347;52.486;13.432;2023-02-23T15:31:04;48.20;;;26.15;;
16472;SDS011;8347;52.486;13.432;2023-02-23T15:33:57;44.22;;;26.70;;
16472;SDS011;8347;52.486;13.432;2023-02-23T15:37:02;50.20;;;26.63;;
16472;SDS011;8347;52.486;13.432;2023-02-23T15:39:58;48.45;;;27.30;;
16472;SDS011;8347;52.486;13.432;2023-02-23T15:42:47;48.08;;;26.75;;
16472;SDS011;8347;52.486;13.432;2023-02-23T15:45:39;41.28;;;24.88;;
16472;SDS011;8347;52.486;13.432;2023-02-23T15:48:39;51.33;;;28.17;;
16472;SDS011;8347;52.486;13.432;2023-02-23T15:51:31;51.67;;;27.98;;
16472;SDS011;8347;52.486;13.432;2023-02-23T15:54:29;50.33;;;29.25;;
16472;SDS011;8347;52.486;13.432;2023-02-23T15:57:44;60.97;;;32.45;;
16472;SDS011;8347;52.486;13.432;2023-02-23T16:00:37;58.45;;;29.80;;
16472;SDS011;8347;52.486;13.432;2023-02-23T16:03:29;48.35;;;26.90;;
16472;SDS011;8347;52.486;13.432;2023-02-23T16:06:25;59.03;;;30.95;;
16472;SDS011;8347;52.486;13.432;2023-02-23T16:09:13;54.47;;;31.08;;
16472;SDS011;8347;52.486;13.432;2023-02-23T16:12:12;62.65;;;32.50;;
16472;SDS011;8347;52.486;13.432;2023-02-23T16:15:04;56.97;;;29.75;;
16472;SDS011;8347;52.486;13.432;2023-02-23T16:18:01;57.95;;;28.77;;
16472;SDS011;8347;52.486;13.432;2023-02-23T16:20:50;59.38;;;29.33;;
16472;SDS011;8347;52.486;13.432;2023-02-23T16:23:41;63.67;;;33.08;;
16472;SDS011;8347;52.486;13.432;2023-02-23T16:29:26;66.75;;;35.38;;
16472;SDS011;8347;52.486;13.432;2023-02-23T16:32:17;68.70;;;35.70;;
16472;SDS011;8347;52.486;13.432;2023-02-23T16:35:13;64.28;;;32.75;;
16472;SDS011;8347;52.486;13.432;2023-02-23T16:38:01;58.03;;;30.83;;
16472;SDS011;8347;52.486;13.432;2023-02-23T16:40:48;60.00;;;32.55;;
16472;SDS011;8347;52.486;13.432;2023-02-23T16:43:35;80.05;;;39.85;;
16472;SDS011;8347;52.486;13.432;2023-02-23T16:46:22;71.55;;;38.28;;
16472;SDS011;8347;52.486;13.432;2023-02-23T16:49:09;73.38;;;36.58;;
16472;SDS011;8347;52.486;13.432;2023-02-23T16:51:58;63.30;;;33.42;;
16472;SDS011;8347;52.486;13.432;2023-02-23T16:54:44;62.17;;;33.58;;
16472;SDS011;8347;52.486;13.432;2023-02-23T16:57:36;79.45;;;35.78;;
16472;SDS011;8347;52.486;13.432;2023-02-23T17:00:26;66.88;;;35.17;;
16472;SDS011;8347;52.486;13.432;2023-02-23T17:03:18;77.03;;;37.90;;
16472;SDS011;8347;52.486;13.432;2023-02-23T17:06:06;88.57;;;41.67;;
16472;SDS011;8347;52.486;13.432;2023-02-23T17:08:52;101.80;;;47.00;;
16472;SDS011;8347;52.486;13.432;2023-02-23T17:11:39;106.28;;;48.13;;
16472;SDS011;8347;52.486;13.432;2023-02-23T17:14:26;92.82;;;44.17;;
16472;SDS011;8347;52.486;13.432;2023-02-23T17:17:17;95.00;;;43.63;;
16472;SDS011;8347;52.486;13.432;2023-02-23T17:20:04;99.47;;;44.45;;
16472;SDS011;8347;52.486;13.432;2023-02-23T17:23:00;88.20;;;44.20;;
16472;SDS011;8347;52.486;13.432;2023-02-23T17:25:47;87.93;;;43.92;;
16472;SDS011;8347;52.486;13.432;2023-02-23T17:28:34;98.40;;;45.47;;
16472;SDS011;8347;52.486;13.432;2023-02-23T17:31:21;105.72;;;46.15;;
16472;SDS011;8347;52.486;13.432;2023-02-23T17:34:07;140.90;;;60.65;;
16472;SDS011;8347;52.486;13.432;2023-02-23T17:36:54;119.85;;;52.35;;
16472;SDS011;8347;52.486;13.432;2023-02-23T17:39:41;104.40;;;49.13;;
16472;SDS011;8347;52.486;13.432;2023-02-23T17:42:28;96.55;;;46.42;;
16472;SDS011;8347;52.486;13.432;2023-02-23T17:45:18;101.22;;;45.58;;
16472;SDS011;8347;52.486;13.432;2023-02-23T17:48:05;107.35;;;51.00;;
16472;SDS011;8347;52.486;13.432;2023-02-23T17:50:55;106.35;;;50.85;;
16472;SDS011;8347;52.486;13.432;2023-02-23T17:53:43;97.05;;;43.97;;
16472;SDS011;8347;52.486;13.432;2023-02-23T17:56:29;96.68;;;47.65;;
16472;SDS011;8347;52.486;13.432;2023-02-23T17:59:16;105.03;;;47.70;;
16472;SDS011;8347;52.486;13.432;2023-02-23T18:02:02;101.80;;;48.30;;
16472;SDS011;8347;52.486;13.432;2023-02-23T18:04:51;106.97;;;49.00;;
16472;SDS011;8347;52.486;13.432;2023-02-23T18:07:38;95.80;;;45.38;;